createdAt,value
2023-04-14T00:01:59.292Z,6.43
2023-04-14T00:05:02.048Z,6.50
2023-04-14T00:08:04.834Z,6.39
2023-04-14T00:11:07.544Z,6.31
2023-04-14T00:14:11.622Z,6.24
2023-04-14T00:17:14.343Z,6.23
2023-04-14T00:20:17.166Z,6.19
2023-04-14T00:23:19.882Z,6.12
2023-04-14T00:26:22.961Z,6.09
2023-04-14T00:29:27.225Z,6.07
2023-04-14T00:32:30.194Z,6.05
2023-04-14T00:35:33.243Z,6.01
2023-04-14T00:38:35.976Z,5.94
2023-04-14T00:41:38.652Z,5.87
2023-04-14T00:44:42.766Z,5.83
2023-04-14T00:47:49.232Z,5.82
2023-04-14T00:50:52.598Z,5.87
2023-04-14T00:53:56.728Z,5.98
2023-04-14T00:57:00.655Z,6.13
2023-04-14T01:00:05.922Z,6.24
2023-04-14T01:03:08.989Z,6.32
2023-04-14T01:06:11.844Z,6.36
2023-04-14T01:09:15.913Z,6.42
2023-04-14T01:12:32.619Z,6.47
2023-04-14T01:15:42.438Z,6.46
2023-04-14T01:18:52.920Z,6.44
2023-04-14T01:21:58.689Z,6.47
2023-04-14T01:25:22.014Z,6.42
2023-04-14T01:28:43.498Z,6.41
2023-04-14T01:31:49.950Z,6.44
2023-04-14T01:34:56.284Z,6.45
2023-04-14T01:38:04.835Z,6.44
2023-04-14T01:41:09.868Z,6.48
2023-04-14T01:44:15.001Z,6.50
2023-04-14T01:47:21.220Z,6.51
2023-04-14T01:50:26.383Z,6.48
2023-04-14T01:53:33.425Z,6.47
2023-04-14T01:56:38.581Z,6.49
2023-04-14T01:59:43.369Z,6.50
2023-04-14T02:02:50.266Z,6.49
2023-04-14T02:05:56.553Z,6.46
2023-04-14T02:09:02.330Z,6.47
2023-04-14T02:12:07.618Z,6.38
2023-04-14T02:15:16.088Z,6.47
2023-04-14T02:18:23.307Z,6.47
2023-04-14T02:21:27.334Z,6.41
2023-04-14T02:24:30.809Z,6.41
2023-04-14T02:27:39.164Z,6.38
2023-04-14T02:30:45.666Z,6.31
2023-04-14T02:33:54.621Z,6.40
2023-04-14T02:36:58.872Z,6.41
2023-04-14T02:40:05.328Z,6.43
2023-04-14T02:43:14.192Z,6.44
2023-04-14T02:46:20.790Z,6.40
2023-04-14T02:49:26.070Z,6.35
2023-04-14T02:52:31.609Z,6.31
2023-04-14T02:55:35.644Z,6.25
2023-04-14T02:58:39.177Z,6.22
2023-04-14T03:01:44.399Z,6.24
2023-04-14T03:04:48.810Z,6.22
2023-04-14T03:07:53.643Z,6.21
2023-04-14T03:10:57.213Z,6.22
2023-04-14T03:14:00.315Z,6.25
2023-04-14T03:17:04.667Z,6.21
2023-04-14T03:20:10.728Z,6.22
2023-04-14T03:23:14.876Z,6.17
2023-04-14T03:26:22.098Z,6.11
2023-04-14T03:29:27.952Z,6.05
2023-04-14T03:32:35.798Z,6.08
2023-04-14T03:35:41.871Z,6.09
2023-04-14T03:38:46.796Z,6.11
2023-04-14T03:41:51.723Z,6.17
2023-04-14T03:44:57.151Z,6.09
2023-04-14T03:48:03.711Z,6.08
2023-04-14T03:51:10.745Z,5.99
2023-04-14T03:54:16.529Z,6.03
2023-04-14T03:57:23.771Z,5.99
2023-04-14T04:00:28.117Z,5.91
2023-04-14T04:03:33.608Z,5.75
2023-04-14T04:06:40.216Z,5.82
2023-04-14T04:09:44.385Z,5.80
2023-04-14T04:12:49.870Z,5.79
2023-04-14T04:15:53.707Z,5.76
2023-04-14T04:18:57.430Z,5.81
2023-04-14T04:22:02.965Z,5.83
2023-04-14T04:25:08.106Z,5.84
2023-04-14T04:28:14.275Z,5.82
2023-04-14T04:31:17.401Z,5.79
2023-04-14T04:34:20.884Z,5.74
2023-04-14T04:37:28.727Z,5.67
2023-04-14T04:40:36.864Z,5.65
2023-04-14T04:43:39.529Z,5.63
2023-04-14T04:46:53.284Z,5.53
2023-04-14T04:49:55.958Z,5.60
2023-04-14T04:52:59.966Z,5.56
2023-04-14T04:56:03.353Z,5.55
2023-04-14T04:59:06.054Z,5.59
2023-04-14T05:02:09.100Z,5.61
2023-04-14T05:05:12.044Z,5.64
2023-04-14T05:08:16.419Z,5.67
2023-04-14T05:11:19.286Z,5.67
2023-04-14T05:14:21.997Z,5.70
2023-04-14T05:17:24.714Z,5.76
2023-04-14T05:20:27.876Z,5.85
2023-04-14T05:23:33.802Z,5.83
2023-04-14T05:26:57.626Z,5.95
2023-04-14T05:29:59.372Z,5.99
2023-04-14T05:33:03.526Z,6.00
2023-04-14T05:36:06.831Z,5.95
2023-04-14T05:39:10.880Z,6.04
2023-04-14T05:42:13.588Z,6.04
2023-04-14T05:45:16.296Z,6.04
2023-04-14T05:48:19.110Z,6.00
2023-04-14T05:51:21.822Z,6.06
2023-04-14T05:54:25.928Z,6.15
2023-04-14T05:57:28.637Z,6.19
2023-04-14T06:00:31.321Z,6.29
2023-04-14T06:03:34.686Z,6.31
2023-04-14T06:06:38.676Z,6.37
2023-04-14T06:09:43.070Z,6.40
2023-04-14T06:12:45.992Z,6.44
2023-04-14T06:15:49.753Z,6.49
2023-04-14T06:18:52.395Z,6.58
2023-04-14T06:21:55.802Z,6.64
2023-04-14T06:24:59.937Z,6.67
2023-04-14T06:28:03.525Z,6.73
2023-04-14T06:31:06.687Z,6.77
2023-04-14T06:34:09.397Z,6.74
2023-04-14T06:37:12.122Z,6.68
2023-04-14T06:40:16.354Z,6.64
2023-04-14T06:43:19.847Z,6.66
2023-04-14T06:46:22.530Z,6.78
2023-04-14T06:49:25.485Z,6.83
2023-04-14T06:52:28.213Z,6.88
2023-04-14T06:55:32.504Z,6.99
2023-04-14T06:58:35.248Z,7.06
2023-04-14T07:01:38.019Z,7.16
2023-04-14T07:04:40.864Z,7.26
2023-04-14T07:07:43.900Z,7.43
2023-04-14T07:10:48.550Z,7.65
2023-04-14T07:13:51.473Z,7.90
2023-04-14T07:16:54.472Z,8.16
2023-04-14T07:19:58.387Z,8.45
2023-04-14T07:23:01.070Z,8.65
2023-04-14T07:26:05.370Z,8.81
2023-04-14T07:29:08.075Z,9.00
2023-04-14T07:32:12.116Z,9.27
2023-04-14T07:35:15.011Z,9.43
2023-04-14T07:38:17.687Z,9.56
2023-04-14T07:41:21.884Z,9.82
2023-04-14T07:44:24.542Z,9.98
2023-04-14T07:47:27.267Z,10.20
2023-04-14T07:50:30.227Z,10.36
2023-04-14T07:53:33.818Z,10.27
2023-04-14T07:56:37.936Z,10.21
2023-04-14T07:59:42.847Z,10.05
2023-04-14T08:02:46.021Z,9.81
2023-04-14T08:05:48.841Z,9.64
2023-04-14T08:08:51.726Z,9.50
2023-04-14T08:11:56.878Z,9.42
2023-04-14T08:14:59.669Z,9.37
2023-04-14T08:18:02.954Z,9.37
2023-04-14T08:21:05.895Z,9.39
2023-04-14T08:24:08.823Z,9.40
2023-04-14T08:27:12.902Z,9.44
2023-04-14T08:30:15.872Z,9.49
2023-04-14T08:33:18.592Z,9.55
2023-04-14T08:36:21.672Z,9.66
2023-04-14T08:39:24.340Z,9.78
2023-04-14T08:42:28.736Z,9.88
2023-04-14T08:45:32.446Z,9.98
2023-04-14T08:48:39.142Z,10.08
2023-04-14T08:51:44.698Z,10.18
2023-04-14T08:54:51.097Z,10.25
2023-04-14T08:57:56.234Z,10.34
2023-04-14T09:01:00.150Z,10.43
2023-04-14T09:04:05.098Z,10.54
2023-04-14T09:07:09.074Z,10.66
2023-04-14T09:10:12.542Z,10.78
2023-04-14T09:13:17.858Z,10.91
2023-04-14T09:16:20.820Z,11.06
2023-04-14T09:19:25.368Z,11.20
2023-04-14T09:22:28.671Z,11.34
2023-04-14T09:25:31.786Z,11.48
2023-04-14T09:28:35.951Z,11.62
2023-04-14T09:31:38.929Z,11.74
2023-04-14T09:34:50.104Z,11.83
2023-04-14T09:37:52.772Z,11.97
2023-04-14T09:40:57.021Z,12.06
2023-04-14T09:44:08.815Z,12.12
2023-04-14T09:47:15.388Z,12.12
2023-04-14T09:50:18.062Z,12.31
2023-04-14T09:53:26.650Z,12.29
2023-04-14T09:56:29.401Z,12.29
2023-04-14T09:59:35.560Z,12.24
2023-04-14T10:02:49.324Z,12.35
2023-04-14T10:05:52.108Z,12.57
2023-04-14T10:08:57.106Z,12.99
2023-04-14T10:12:10.890Z,12.91
2023-04-14T10:15:17.290Z,12.87
2023-04-14T10:18:20.081Z,12.75
2023-04-14T10:21:25.450Z,12.73
2023-04-14T10:24:28.239Z,12.78
2023-04-14T10:27:33.893Z,12.93
2023-04-14T10:30:39.049Z,13.12
2023-04-14T10:33:42.247Z,13.24
2023-04-14T10:36:45.414Z,13.41
2023-04-14T10:39:56.129Z,13.50
2023-04-14T10:42:58.826Z,13.71
2023-04-14T10:46:03.642Z,13.91
2023-04-14T10:49:06.497Z,14.12
2023-04-14T10:52:33.193Z,13.82
2023-04-14T10:55:51.646Z,13.73
2023-04-14T10:58:56.025Z,13.56
2023-04-14T11:02:00.434Z,13.66
2023-04-14T11:05:06.505Z,13.94
2023-04-14T11:08:14.373Z,14.20
2023-04-14T11:11:17.899Z,14.39
2023-04-14T11:14:27.547Z,14.43
2023-04-14T11:17:33.228Z,14.27
2023-04-14T11:20:41.145Z,14.41
2023-04-14T11:23:44.448Z,14.61
2023-04-14T11:26:47.456Z,14.84
2023-04-14T11:29:51.307Z,14.66
2023-04-14T11:32:58.587Z,14.70
2023-04-14T11:36:03.236Z,14.84
2023-04-14T11:39:06.839Z,14.64
2023-04-14T11:42:09.582Z,14.81
2023-04-14T11:45:15.552Z,15.02
2023-04-14T11:48:21.752Z,15.01
2023-04-14T11:51:30.667Z,15.11
2023-04-14T11:54:36.436Z,14.53
2023-04-14T11:57:39.282Z,14.75
2023-04-14T12:00:42.952Z,14.86
2023-04-14T12:03:47.223Z,15.12
2023-04-14T12:06:50.150Z,15.46
2023-04-14T12:09:52.827Z,15.34
2023-04-14T12:13:00.946Z,15.57
2023-04-14T12:16:05.016Z,16.03
2023-04-14T12:19:09.216Z,16.25
2023-04-14T12:22:12.177Z,16.42
2023-04-14T12:25:14.905Z,16.78
2023-04-14T12:28:19.467Z,16.76
2023-04-14T12:31:28.618Z,16.87
2023-04-14T12:34:33.042Z,16.92
2023-04-14T12:37:35.798Z,17.07
2023-04-14T12:40:40.730Z,16.89
2023-04-14T12:43:43.439Z,17.07
2023-04-14T12:46:48.712Z,17.06
2023-04-14T12:49:53.847Z,17.05
2023-04-14T12:52:57.253Z,16.90
2023-04-14T12:56:07.903Z,16.80
2023-04-14T12:59:10.631Z,16.76
2023-04-14T13:02:14.136Z,16.82
2023-04-14T13:05:18.537Z,17.06
2023-04-14T13:08:21.182Z,16.97
2023-04-14T13:11:25.111Z,16.93
2023-04-14T13:14:27.799Z,17.12
2023-04-14T13:17:30.747Z,17.19
2023-04-14T13:20:35.237Z,17.29
2023-04-14T13:23:38.240Z,16.80
2023-04-14T13:26:40.979Z,16.32
2023-04-14T13:29:43.833Z,16.09
2023-04-14T13:32:46.750Z,16.21
2023-04-14T13:35:51.518Z,16.23
2023-04-14T13:38:56.081Z,16.38
2023-04-14T13:41:59.514Z,16.38
2023-04-14T13:45:02.275Z,16.55
2023-04-14T13:48:05.684Z,16.63
2023-04-14T13:51:09.724Z,16.80
2023-04-14T13:54:12.720Z,17.03
2023-04-14T13:57:15.501Z,17.17
2023-04-14T14:00:18.619Z,17.28
2023-04-14T14:03:21.327Z,17.65
2023-04-14T14:06:26.476Z,17.70
2023-04-14T14:09:29.396Z,17.58
2023-04-14T14:12:32.516Z,17.81
2023-04-14T14:15:35.554Z,18.22
2023-04-14T14:18:38.436Z,18.39
2023-04-14T14:21:44.031Z,18.51
2023-04-14T14:24:47.052Z,18.43
2023-04-14T14:27:51.961Z,18.36
2023-04-14T14:30:54.766Z,18.09
2023-04-14T14:33:57.467Z,17.92
2023-04-14T14:37:02.276Z,17.52
2023-04-14T14:40:06.738Z,17.77
2023-04-14T14:43:09.620Z,17.49
2023-04-14T14:46:12.378Z,17.66
2023-04-14T14:49:15.473Z,17.78
2023-04-14T14:52:19.534Z,18.04
2023-04-14T14:55:22.176Z,17.95
2023-04-14T14:58:25.404Z,17.87
2023-04-14T15:01:28.241Z,17.47
2023-04-14T15:04:31.228Z,17.22
2023-04-14T15:07:35.342Z,16.98
2023-04-14T15:10:38.000Z,16.80
2023-04-14T15:13:40.732Z,16.72
2023-04-14T15:16:43.452Z,16.61
2023-04-14T15:19:46.774Z,16.34
2023-04-14T15:22:50.856Z,16.37
2023-04-14T15:25:53.656Z,16.17
2023-04-14T15:28:56.442Z,15.86
2023-04-14T15:35:01.778Z,15.65
2023-04-14T15:38:06.147Z,15.60
2023-04-14T15:41:08.829Z,15.61
2023-04-14T15:44:11.610Z,15.58
2023-04-14T15:47:14.296Z,15.54
2023-04-14T15:50:18.746Z,15.55
2023-04-14T15:53:23.575Z,15.71
2023-04-14T15:56:26.522Z,15.71
2023-04-14T15:59:30.296Z,15.71
2023-04-14T16:02:35.239Z,15.70
2023-04-14T16:05:37.990Z,15.76
2023-04-14T16:08:42.208Z,15.60
2023-04-14T16:11:44.856Z,15.65
2023-04-14T16:14:47.522Z,15.64
2023-04-14T16:17:51.095Z,15.49
2023-04-14T16:20:53.796Z,15.75
2023-04-14T16:23:57.903Z,15.61
2023-04-14T16:27:01.081Z,15.75
2023-04-14T16:30:03.959Z,15.90
2023-04-14T16:33:06.902Z,16.01
2023-04-14T16:36:09.624Z,16.04
2023-04-14T16:39:13.687Z,16.01
2023-04-14T16:42:18.936Z,16.08
2023-04-14T16:45:21.771Z,16.24
2023-04-14T16:48:24.457Z,16.41
2023-04-14T16:51:27.934Z,16.19
2023-04-14T16:54:32.657Z,16.29
2023-04-14T16:57:35.473Z,16.16
2023-04-14T17:00:38.219Z,16.17
2023-04-14T17:03:41.591Z,16.11
2023-04-14T17:06:44.498Z,16.03
2023-04-14T17:09:48.971Z,15.89
2023-04-14T17:12:53.793Z,15.83
2023-04-14T17:16:06.166Z,15.64
2023-04-14T17:19:14.013Z,15.44
2023-04-14T17:22:16.711Z,15.23
2023-04-14T17:25:22.932Z,15.00
2023-04-14T17:28:26.768Z,14.77
2023-04-14T17:31:29.664Z,14.65
2023-04-14T17:34:32.456Z,14.46
2023-04-14T17:37:36.142Z,14.35
2023-04-14T17:40:40.385Z,14.30
2023-04-14T17:43:43.118Z,14.23
2023-04-14T17:46:46.508Z,14.11
2023-04-14T17:49:50.001Z,14.09
2023-04-14T17:52:53.942Z,14.00
2023-04-14T17:55:58.853Z,13.89
2023-04-14T17:59:02.952Z,13.87
2023-04-14T18:02:05.665Z,13.78
2023-04-14T18:05:11.117Z,13.55
2023-04-14T18:08:14.273Z,13.57
2023-04-14T18:11:18.489Z,13.49
2023-04-14T18:14:21.655Z,13.35
2023-04-14T18:17:24.935Z,13.18
2023-04-14T18:20:27.745Z,12.95
2023-04-14T18:23:31.977Z,12.83
2023-04-14T18:26:36.186Z,12.62
2023-04-14T18:29:39.105Z,12.47
2023-04-14T18:32:42.024Z,12.37
2023-04-14T18:35:50.587Z,12.19
2023-04-14T18:38:53.232Z,11.99
2023-04-14T18:41:57.239Z,11.90
2023-04-14T18:44:59.978Z,11.82
2023-04-14T18:48:03.287Z,11.70
2023-04-14T18:51:08.158Z,11.63
2023-04-14T18:54:13.805Z,11.56
2023-04-14T18:57:18.028Z,11.48
2023-04-14T19:00:20.995Z,11.44
2023-04-14T19:03:24.026Z,11.35
2023-04-14T19:06:27.502Z,11.27
2023-04-14T19:09:30.153Z,11.21
2023-04-14T19:12:34.485Z,11.11
2023-04-14T19:15:37.612Z,11.04
2023-04-14T19:18:41.050Z,10.97
2023-04-14T19:21:43.726Z,10.89
2023-04-14T19:24:46.407Z,10.82
2023-04-14T19:27:51.045Z,10.75
2023-04-14T19:30:54.316Z,10.68
2023-04-14T19:33:58.669Z,10.63
2023-04-14T19:37:03.254Z,10.56
2023-04-14T19:40:08.239Z,10.51
2023-04-14T19:43:13.832Z,10.40
2023-04-14T19:46:18.025Z,10.32
2023-04-14T19:49:20.872Z,10.26
2023-04-14T19:52:23.645Z,10.19
2023-04-14T19:55:26.349Z,10.13
2023-04-14T19:58:31.384Z,10.04
2023-04-14T20:01:34.404Z,9.95
2023-04-14T20:04:37.736Z,9.90
2023-04-14T20:07:40.726Z,9.86
2023-04-14T20:10:43.576Z,9.80
2023-04-14T20:13:47.864Z,9.73
2023-04-14T20:16:51.497Z,9.65
2023-04-14T20:19:54.760Z,9.63
2023-04-14T20:22:59.080Z,9.57
2023-04-14T20:26:02.295Z,9.50
2023-04-14T20:29:06.513Z,9.44
2023-04-14T20:32:09.435Z,9.41
2023-04-14T20:35:13.059Z,9.36
2023-04-14T20:38:16.202Z,9.29
2023-04-14T20:41:19.270Z,9.24
2023-04-14T20:44:23.281Z,9.19
2023-04-14T20:47:26.707Z,9.15
2023-04-14T20:50:29.696Z,8.98
2023-04-14T20:53:32.355Z,9.06
2023-04-14T20:56:35.055Z,8.97
2023-04-14T20:59:39.366Z,8.92
2023-04-14T21:02:43.504Z,8.85
2023-04-14T21:05:47.369Z,8.77
2023-04-14T21:08:50.081Z,8.73
2023-04-14T21:12:15.258Z,8.83
2023-04-14T21:15:48.555Z,8.72
2023-04-14T21:18:40.743Z,8.51
2023-04-14T21:21:43.396Z,8.38
2023-04-14T21:24:48.530Z,8.29
2023-04-14T21:27:51.383Z,8.20
2023-04-14T21:31:00.432Z,8.11
2023-04-14T21:34:04.654Z,8.11
2023-04-14T21:37:07.456Z,8.05
2023-04-14T21:40:11.191Z,8.02
2023-04-14T21:43:13.821Z,8.00
2023-04-14T21:46:17.944Z,7.97
2023-04-14T21:49:20.877Z,7.90
2023-04-14T21:52:23.521Z,7.86
2023-04-14T21:55:26.436Z,7.88
2023-04-14T21:58:29.080Z,7.84
2023-04-14T22:01:33.794Z,7.75
2023-04-14T22:04:37.377Z,7.75
2023-04-14T22:07:40.397Z,7.71
2023-04-14T22:10:43.437Z,7.70
2023-04-14T22:13:46.579Z,7.68
2023-04-14T22:16:50.649Z,7.64
2023-04-14T22:19:53.758Z,7.59
2023-04-14T22:22:57.131Z,7.52
2023-04-14T22:26:01.023Z,7.50
2023-04-14T22:29:04.381Z,7.44
2023-04-14T22:32:08.764Z,7.39
2023-04-14T22:35:11.516Z,7.34
2023-04-14T22:38:16.744Z,7.35
2023-04-14T22:41:19.782Z,7.36
2023-04-14T22:44:22.465Z,7.36
2023-04-14T22:47:26.893Z,7.38
2023-04-14T22:50:30.810Z,7.36
2023-04-14T22:53:33.509Z,7.33
2023-04-14T22:56:37.162Z,7.29
2023-04-14T22:59:39.803Z,7.28
2023-04-14T23:02:46.618Z,7.26
2023-04-14T23:05:50.512Z,7.26
2023-04-14T23:08:53.208Z,7.23
2023-04-14T23:11:58.105Z,7.23
2023-04-14T23:15:02.333Z,7.19
2023-04-14T23:18:06.524Z,7.15
2023-04-14T23:21:10.045Z,7.15
2023-04-14T23:24:13.938Z,7.16
2023-04-14T23:27:19.528Z,7.17
2023-04-14T23:30:22.226Z,7.18
2023-04-14T23:33:27.411Z,7.22
2023-04-14T23:36:30.310Z,7.24
2023-04-14T23:39:33.335Z,7.15
2023-04-14T23:42:36.003Z,7.25
2023-04-14T23:45:38.821Z,7.25
2023-04-14T23:48:42.973Z,7.23
2023-04-14T23:51:46.327Z,7.24
2023-04-14T23:54:48.994Z,7.27
